Time,TemperatureF,DewpointF,PressureIn,WindDirection,WindDirectionDegrees,WindSpeedMPH,WindSpeedGustMPH,Humidity,HourlyPrecipIn,Conditions,Clouds,dailyrainin,SoftwareType,DateUTC
2013-07-06 00:02:00,75.0,75.0,30.12,SE,131,3.0,4.0,100,99.99,,,-99.99,,2013-07-06 04:02:00,
2013-07-06 00:33:00,75.0,75.0,30.13,SE,143,2.0,4.0,100,99.99,,,-99.99,,2013-07-06 04:33:00,
2013-07-06 00:53:00,75.0,75.0,30.13,SSW,203,1.0,3.0,100,99.99,,,-99.99,,2013-07-06 04:53:00,
2013-07-06 01:02:00,75.0,75.0,30.13,North,0,0.0,0.0,100,99.99,,,-99.99,,2013-07-06 05:02:00,
2013-07-06 01:12:00,75.0,75.0,30.13,North,0,0.0,0.0,100,99.99,,,-99.99,,2013-07-06 05:12:00,
2013-07-06 01:22:00,75.0,75.0,30.12,South,170,1.0,3.0,100,99.99,,,-99.99,,2013-07-06 05:22:00,
2013-07-06 01:33:00,75.0,75.0,30.12,South,177,2.0,4.0,100,99.99,,,-99.99,,2013-07-06 05:33:00,
2013-07-06 01:42:00,75.0,75.0,30.11,SSE,162,0.0,2.0,100,99.99,,,-99.99,,2013-07-06 05:42:00,
2013-07-06 01:53:00,75.0,75.0,30.11,SSE,160,0.0,1.0,100,99.99,,,-99.99,,2013-07-06 05:53:00,
2013-07-06 02:02:00,75.0,75.0,30.11,ESE,113,1.0,3.0,100,99.99,,,-99.99,,2013-07-06 06:02:00,
2013-07-06 02:12:00,75.0,75.0,30.10,East,96,1.0,2.0,100,99.99,,,-99.99,,2013-07-06 06:12:00,
2013-07-06 02:22:00,75.0,75.0,30.10,SSE,149,3.0,5.0,100,99.99,,,-99.99,,2013-07-06 06:22:00,
2013-07-06 02:34:00,75.0,75.0,30.10,SSE,153,1.0,3.0,100,99.99,,,-99.99,,2013-07-06 06:34:00,
2013-07-06 02:43:00,74.0,74.0,30.10,SE,139,0.0,2.0,100,99.99,,,-99.99,,2013-07-06 06:43:00,
2013-07-06 02:53:00,75.0,75.0,30.09,SE,146,3.0,5.0,100,99.99,,,-99.99,,2013-07-06 06:53:00,
2013-07-06 03:02:00,75.0,75.0,30.09,SE,131,3.0,4.0,100,99.99,,,-99.99,,2013-07-06 07:02:00,
2013-07-06 03:12:00,75.0,75.0,30.09,SE,131,2.0,5.0,100,99.99,,,-99.99,,2013-07-06 07:12:00,
2013-07-06 03:22:00,75.0,75.0,30.09,SSE,160,3.0,4.0,100,99.99,,,-99.99,,2013-07-06 07:22:00,
2013-07-06 03:33:00,75.0,75.0,30.08,SE,125,3.0,5.0,100,99.99,,,-99.99,,2013-07-06 07:33:00,
2013-07-06 03:44:00,75.0,75.0,30.09,SE,142,3.0,5.0,100,99.99,,,-99.99,,2013-07-06 07:44:00,
2013-07-06 03:52:00,75.0,75.0,30.08,SE,136,3.0,4.0,100,99.99,,,-99.99,,2013-07-06 07:52:00,
2013-07-06 04:02:00,75.0,75.0,30.08,SE,134,3.0,4.0,100,99.99,,,-99.99,,2013-07-06 08:02:00,
2013-07-06 04:12:00,75.0,75.0,30.08,SE,125,4.0,6.0,100,99.99,,,-99.99,,2013-07-06 08:12:00,
2013-07-06 04:21:00,75.0,75.0,30.08,SE,127,4.0,6.0,100,99.99,,,-99.99,,2013-07-06 08:21:00,
2013-07-06 04:34:00,75.0,75.0,30.08,ESE,122,4.0,7.0,100,99.99,,,-99.99,,2013-07-06 08:34:00,
2013-07-06 04:43:00,75.0,75.0,30.08,SSE,149,3.0,7.0,100,99.99,,,-99.99,,2013-07-06 08:43:00,
2013-07-06 04:54:00,75.0,75.0,30.08,SE,141,3.0,6.0,100,99.99,,,-99.99,,2013-07-06 08:54:00,
2013-07-06 05:02:00,74.0,74.0,30.08,SE,129,4.0,7.0,100,99.99,,,-99.99,,2013-07-06 09:02:00,
2013-07-06 05:11:00,74.0,74.0,30.08,SE,125,4.0,7.0,100,99.99,,,-99.99,,2013-07-06 09:11:00,
2013-07-06 05:33:00,74.0,74.0,30.07,ESE,120,4.0,7.0,100,99.99,,,-99.99,,2013-07-06 09:33:00,
2013-07-06 05:43:00,74.0,74.0,30.07,SE,124,4.0,7.0,100,99.99,,,-99.99,,2013-07-06 09:43:00,
2013-07-06 05:52:00,74.0,74.0,30.07,SE,125,3.0,6.0,100,99.99,,,-99.99,,2013-07-06 09:52:00,
2013-07-06 06:02:00,74.0,74.0,30.07,East,90,3.0,6.0,100,99.99,,,-99.99,,2013-07-06 10:02:00,
2013-07-06 06:11:00,74.0,74.0,30.07,East,80,3.0,5.0,100,99.99,,,-99.99,,2013-07-06 10:11:00,
2013-07-06 06:33:00,74.0,74.0,30.07,East,97,2.0,4.0,100,99.99,,,-99.99,,2013-07-06 10:33:00,
2013-07-06 06:42:00,74.0,74.0,30.07,ESE,104,3.0,5.0,100,99.99,,,-99.99,,2013-07-06 10:42:00,
2013-07-06 06:53:00,74.0,74.0,30.07,ESE,122,3.0,5.0,100,99.99,,,-99.99,,2013-07-06 10:53:00,
2013-07-06 07:33:00,74.0,74.0,30.08,East,83,3.0,6.0,100,99.99,,,-99.99,,2013-07-06 11:33:00,
2013-07-06 07:53:00,75.0,75.0,30.09,ESE,122,3.0,6.0,100,99.99,,,-99.99,,2013-07-06 11:53:00,
2013-07-06 08:12:00,76.0,76.0,30.10,SE,141,5.0,7.0,100,99.99,,,-99.99,,2013-07-06 12:12:00,
2013-07-06 08:33:00,77.0,77.0,30.11,SSE,152,5.0,9.0,100,99.99,,,-99.99,,2013-07-06 12:33:00,
2013-07-06 08:43:00,78.0,78.0,30.11,SE,134,6.0,10.0,100,99.99,,,-99.99,,2013-07-06 12:43:00,
2013-07-06 08:52:00,78.0,78.0,30.11,SE,143,8.0,11.0,100,99.99,,,-99.99,,2013-07-06 12:52:00,
2013-07-06 09:01:00,79.0,79.0,30.11,SSE,153,7.0,13.0,100,99.99,,,-99.99,,2013-07-06 13:01:00,
2013-07-06 09:12:00,80.0,80.0,30.12,SE,141,9.0,15.0,100,99.99,,,-99.99,,2013-07-06 13:12:00,
2013-07-06 09:22:00,80.0,80.0,30.12,SSE,148,8.0,14.0,99,99.99,,,-99.99,,2013-07-06 13:22:00,
2013-07-06 09:33:00,81.0,80.0,30.12,SE,145,10.0,15.0,97,99.99,,,-99.99,,2013-07-06 13:33:00,
2013-07-06 09:43:00,81.0,79.0,30.12,SSE,152,8.0,18.0,93,99.99,,,-99.99,,2013-07-06 13:43:00,
2013-07-06 09:52:00,82.0,79.0,30.12,SE,139,12.0,17.0,90,99.99,,,-99.99,,2013-07-06 13:52:00,
2013-07-06 10:02:00,82.0,78.0,30.12,SE,146,13.0,19.0,87,99.99,,,-99.99,,2013-07-06 14:02:00,
2013-07-06 10:12:00,83.0,78.0,30.12,SSE,150,8.0,14.0,86,99.99,,,-99.99,,2013-07-06 14:12:00,
2013-07-06 10:22:00,83.0,77.0,30.13,SSE,160,12.0,16.0,82,99.99,,,-99.99,,2013-07-06 14:22:00,
2013-07-06 10:34:00,84.0,76.0,30.13,SSE,150,11.0,17.0,77,99.99,,,-99.99,,2013-07-06 14:34:00,
2013-07-06 10:42:00,84.0,77.0,30.13,SE,143,11.0,16.0,80,99.99,,,-99.99,,2013-07-06 14:42:00,
2013-07-06 10:53:00,84.0,76.0,30.13,SSE,160,9.0,14.0,77,99.99,,,-99.99,,2013-07-06 14:53:00,
2013-07-06 11:02:00,86.0,76.0,30.13,SSE,149,7.0,12.0,73,99.99,,,-99.99,,2013-07-06 15:02:00,
2013-07-06 11:12:00,85.0,75.0,30.12,South,173,10.0,15.0,73,99.99,,,-99.99,,2013-07-06 15:12:00,
2013-07-06 11:22:00,86.0,75.0,30.12,SSE,153,7.0,15.0,71,99.99,,,-99.99,,2013-07-06 15:22:00,
2013-07-06 11:43:00,88.0,75.0,30.12,SSE,155,9.0,14.0,66,99.99,,,-99.99,,2013-07-06 15:43:00,
2013-07-06 11:53:00,88.0,75.0,30.12,SSE,152,11.0,17.0,66,99.99,,,-99.99,,2013-07-06 15:53:00,
2013-07-06 12:07:00,88.0,75.0,30.12,SSE,148,7.0,15.0,66,99.99,,,-99.99,,2013-07-06 16:07:00,
2013-07-06 12:15:00,89.0,75.0,30.11,SE,146,9.0,16.0,64,99.99,,,-99.99,,2013-07-06 16:15:00,
2013-07-06 12:53:00,90.0,74.0,30.11,SE,143,11.0,16.0,60,99.99,,,-99.99,,2013-07-06 16:53:00,
2013-07-06 13:01:00,90.0,74.0,30.11,SE,143,8.0,15.0,59,99.99,,,-99.99,,2013-07-06 17:01:00,
2013-07-06 13:13:00,91.0,74.0,30.10,SE,145,9.0,15.0,57,99.99,,,-99.99,,2013-07-06 17:13:00,
2013-07-06 13:32:00,91.0,74.0,30.10,SE,145,9.0,17.0,58,99.99,,,-99.99,,2013-07-06 17:32:00,
2013-07-06 13:44:00,91.0,73.0,30.09,SSE,149,10.0,16.0,56,99.99,,,-99.99,,2013-07-06 17:44:00,
2013-07-06 14:24:00,90.0,73.0,30.09,SSE,160,9.0,13.0,58,99.99,,,-99.99,,2013-07-06 18:24:00,
2013-07-06 14:34:00,90.0,73.0,30.09,SSE,152,11.0,17.0,58,99.99,,,-99.99,,2013-07-06 18:34:00,
2013-07-06 14:54:00,90.0,73.0,30.08,SSE,165,7.0,12.0,58,99.99,,,-99.99,,2013-07-06 18:54:00,
2013-07-06 15:01:00,90.0,73.0,30.08,SSE,150,11.0,17.0,58,99.99,,,-99.99,,2013-07-06 19:01:00,
2013-07-06 15:12:00,90.0,72.0,30.07,South,177,11.0,16.0,56,99.99,,,-99.99,,2013-07-06 19:12:00,
2013-07-06 15:30:00,91.0,74.0,30.07,SSE,150,8.0,14.0,57,99.99,,,-99.99,,2013-07-06 19:30:00,
2013-07-06 15:43:00,92.0,73.0,30.07,SE,146,8.0,14.0,55,99.99,,,-99.99,,2013-07-06 19:43:00,
2013-07-06 15:53:00,91.0,73.0,30.06,SE,143,9.0,14.0,56,99.99,,,-99.99,,2013-07-06 19:53:00,
2013-07-06 16:13:00,92.0,72.0,30.06,SSE,152,8.0,13.0,53,99.99,,,-99.99,,2013-07-06 20:13:00,
2013-07-06 16:23:00,92.0,73.0,30.06,SE,134,7.0,12.0,55,99.99,,,-99.99,,2013-07-06 20:23:00,
2013-07-06 16:45:00,92.0,71.0,30.05,South,170,11.0,17.0,51,99.99,,,-99.99,,2013-07-06 20:45:00,
2013-07-06 16:54:00,92.0,73.0,30.04,SSE,148,10.0,14.0,54,99.99,,,-99.99,,2013-07-06 20:54:00,
2013-07-06 17:20:00,93.0,71.0,30.04,SE,146,11.0,15.0,49,99.99,,,-99.99,,2013-07-06 21:20:00,
2013-07-06 17:33:00,94.0,72.0,30.04,SSE,155,7.0,12.0,50,99.99,,,-99.99,,2013-07-06 21:33:00,
2013-07-06 17:55:00,92.0,71.0,30.04,SE,141,8.0,13.0,51,99.99,,,-99.99,,2013-07-06 21:55:00,
2013-07-06 18:32:00,91.0,71.0,30.03,SE,146,8.0,11.0,53,99.99,,,-99.99,,2013-07-06 22:32:00,
2013-07-06 18:44:00,92.0,73.0,30.03,SSE,148,7.0,12.0,54,99.99,,,-99.99,,2013-07-06 22:44:00,
2013-07-06 18:53:00,92.0,73.0,30.03,SSE,149,8.0,15.0,54,99.99,,,-99.99,,2013-07-06 22:53:00,
2013-07-06 19:33:00,88.0,74.0,30.03,ESE,122,6.0,11.0,63,99.99,,,-99.99,,2013-07-06 23:33:00,
2013-07-06 19:52:00,87.0,74.0,30.04,SE,145,6.0,14.0,65,99.99,,,-99.99,,2013-07-06 23:52:00,
2013-07-06 20:01:00,87.0,75.0,30.04,SE,139,6.0,11.0,67,99.99,,,-99.99,,2013-07-07 00:01:00,
2013-07-06 20:15:00,86.0,75.0,30.05,SE,132,4.0,7.0,70,99.99,,,-99.99,,2013-07-07 00:15:00,
2013-07-06 20:23:00,85.0,75.0,30.06,SSE,153,4.0,6.0,71,99.99,,,-99.99,,2013-07-07 00:23:00,
2013-07-06 20:43:00,84.0,75.0,30.06,SSE,148,4.0,8.0,74,99.99,,,-99.99,,2013-07-07 00:43:00,
2013-07-06 21:00:00,84.0,75.0,30.06,SSE,148,4.0,8.0,74,99.99,,,-99.99,,2013-07-07 01:00:00,
2013-07-06 21:13:00,84.0,75.0,30.06,SE,139,6.0,9.0,74,99.99,,,-99.99,,2013-07-07 01:13:00,
2013-07-06 21:33:00,83.0,74.0,30.06,SE,135,4.0,8.0,74,99.99,,,-99.99,,2013-07-07 01:33:00,
2013-07-06 21:52:00,83.0,74.0,30.06,SE,135,4.0,8.0,74,99.99,,,-99.99,,2013-07-07 01:52:00,
2013-07-06 22:00:00,81.0,75.0,30.09,SE,143,5.0,9.0,81,99.99,,,-99.99,,2013-07-07 02:00:00,
2013-07-06 22:14:00,81.0,75.0,30.09,SE,143,5.0,9.0,81,99.99,,,-99.99,,2013-07-07 02:14:00,
2013-07-06 22:22:00,81.0,75.0,30.09,SE,143,5.0,9.0,81,99.99,,,-99.99,,2013-07-07 02:22:00,
2013-07-06 22:32:00,81.0,75.0,30.09,SE,143,5.0,9.0,81,99.99,,,-99.99,,2013-07-07 02:32:00,
2013-07-06 23:44:00,81.0,75.0,30.09,SSE,152,4.0,8.0,81,99.99,,,-99.99,,2013-07-07 03:44:00,
2013-07-06 23:56:00,81.0,75.0,30.09,SSE,152,4.0,8.0,81,99.99,,,-99.99,,2013-07-07 03:56:00,